Time;durP1;ratioP1;P1;durP2;ratioP2;P2;SDS_P1;SDS_P2;PMS_P1;PMS_P2;Temp;Humidity;BMP_temperature;BMP_pressure;BME280_temperature;BME280_humidity;BME280_pressure;Samples;Min_cycle;Max_cycle;Signal;HPM_P1;HPM_P2
2022/05/19 00:02:15;;;;;;;4.32;1.70;;;21.90;62.60;;;;;;5036964;28;20064;-58
2022/05/19 00:04:40;;;;;;;7.85;2.00;;;21.90;62.70;;;;;;5035502;28;20059;-58
2022/05/19 00:07:06;;;;;;;8.02;2.10;;;22.00;62.70;;;;;;5034486;28;20479;-58
2022/05/19 00:09:32;;;;;;;7.22;1.90;;;21.90;62.70;;;;;;5030755;28;20033;-58
2022/05/19 00:11:58;;;;;;;6.93;2.10;;;21.90;62.70;;;;;;5037395;28;20032;-59
2022/05/19 00:14:24;;;;;;;7.50;1.90;;;21.90;62.70;;;;;;5065547;28;20025;-58
2022/05/19 00:16:50;;;;;;;7.72;2.08;;;21.90;62.70;;;;;;5033147;28;20418;-58
2022/05/19 00:19:16;;;;;;;7.15;2.00;;;21.90;62.90;;;;;;5030635;28;20382;-58
2022/05/19 00:21:41;;;;;;;6.40;2.03;;;21.90;62.80;;;;;;5031108;28;20029;-58
2022/05/19 00:24:08;;;;;;;9.18;2.20;;;21.90;62.70;;;;;;5029619;28;20037;-58
2022/05/19 00:26:33;;;;;;;6.22;1.80;;;21.90;62.70;;;;;;5035503;28;20018;-58
2022/05/19 00:28:59;;;;;;;6.68;2.00;;;21.90;62.70;;;;;;5034790;28;20032;-58
2022/05/19 00:31:26;;;;;;;8.13;2.10;;;21.80;62.70;;;;;;5033858;28;20033;-58
2022/05/19 00:33:52;;;;;;;8.43;1.95;;;21.80;62.70;;;;;;5033929;28;20043;-58
2022/05/19 00:36:19;;;;;;;6.82;2.08;;;21.80;62.70;;;;;;5032313;28;20025;-58
2022/05/19 00:38:44;;;;;;;7.75;2.03;;;21.80;62.70;;;;;;5030907;28;20034;-58
2022/05/19 00:41:10;;;;;;;7.35;1.88;;;21.80;62.70;;;;;;5038581;28;20071;-58
2022/05/19 00:43:40;;;;;;;7.82;1.90;;;21.80;62.70;;;;;;5034600;28;20033;-58
2022/05/19 00:46:15;;;;;;;6.20;1.90;;;21.80;62.80;;;;;;5033812;28;20492;-58
2022/05/19 00:48:54;;;;;;;7.47;1.92;;;21.80;62.80;;;;;;5038970;28;20079;-57
2022/05/19 00:51:21;;;;;;;6.90;1.83;;;21.80;62.80;;;;;;5039728;28;20433;-58
2022/05/19 00:53:52;;;;;;;6.38;2.05;;;21.70;62.70;;;;;;5056347;28;20367;-58
2022/05/19 00:56:32;;;;;;;8.00;2.00;;;21.80;62.80;;;;;;5062838;28;20769;-58
2022/05/19 00:59:08;;;;;;;6.85;1.88;;;21.80;62.80;;;;;;5033138;28;20021;-58
2022/05/19 01:01:35;;;;;;;7.78;1.92;;;21.70;62.80;;;;;;5030508;28;20018;-58
2022/05/19 01:04:24;;;;;;;5.55;1.60;;;21.70;62.80;;;;;;5062924;28;20090;-58
2022/05/19 01:06:50;;;;;;;7.22;2.00;;;21.70;62.80;;;;;;5035019;28;20116;-58
2022/05/19 01:09:16;;;;;;;6.85;1.70;;;21.70;62.80;;;;;;5031703;28;20061;-58
2022/05/19 01:11:43;;;;;;;7.00;2.08;;;21.70;63.80;;;;;;5032634;28;20053;-58
2022/05/19 01:14:09;;;;;;;6.47;1.90;;;21.70;62.80;;;;;;5031554;28;20120;-58
2022/05/19 01:16:34;;;;;;;7.05;1.90;;;21.70;62.80;;;;;;5032653;28;20111;-58
2022/05/19 01:19:00;;;;;;;5.28;1.65;;;21.70;62.80;;;;;;5065132;28;20021;-58
2022/05/19 01:21:27;;;;;;;6.55;1.90;;;21.70;62.80;;;;;;5046299;28;20065;-58
2022/05/19 01:24:16;;;;;;;7.00;1.90;;;21.60;62.70;;;;;;5042852;28;20422;-58
2022/05/19 01:26:52;;;;;;;6.32;1.70;;;21.70;62.80;;;;;;5074396;28;20044;-58
2022/05/19 01:29:23;;;;;;;4.70;1.63;;;21.60;62.80;;;;;;5068322;28;20565;-58
2022/05/19 01:31:57;;;;;;;5.25;1.90;;;21.60;62.80;;;;;;5035707;28;20348;-58
2022/05/19 01:34:27;;;;;;;6.83;2.00;;;21.60;62.70;;;;;;5038440;28;20069;-58
2022/05/19 01:36:53;;;;;;;7.25;1.90;;;21.60;62.70;;;;;;5033913;28;20291;-58
2022/05/19 01:39:21;;;;;;;5.60;1.45;;;21.60;62.70;;;;;;5032311;28;20033;-58
2022/05/19 01:42:05;;;;;;;6.40;1.85;;;21.60;62.70;;;;;;5036567;28;20060;-58
2022/05/19 01:44:58;;;;;;;5.40;1.70;;;21.60;62.90;;;;;;5036318;28;20026;-59
2022/05/19 01:47:37;;;;;;;6.82;1.70;;;21.60;62.80;;;;;;5033044;28;20052;-58
2022/05/19 01:50:08;;;;;;;3.97;1.38;;;21.60;62.70;;;;;;5067502;28;20074;-58
2022/05/19 01:52:35;;;;;;;5.22;1.60;;;21.60;62.80;;;;;;5066953;28;20044;-58
2022/05/19 01:55:30;;;;;;;7.20;1.83;;;21.50;62.80;;;;;;5033754;28;20025;-58
2022/05/19 01:58:08;;;;;;;5.30;1.60;;;21.60;62.70;;;;;;5005803;28;20040;-58
2022/05/19 02:00:34;;;;;;;6.63;1.98;;;21.50;62.70;;;;;;4989695;28;20037;-58
2022/05/19 02:03:21;;;;;;;7.25;1.55;;;21.50;62.70;;;;;;5007155;28;20042;-58
2022/05/19 02:05:51;;;;;;;4.95;1.60;;;21.50;62.70;;;;;;5007357;28;21025;-58
2022/05/19 02:08:33;;;;;;;5.07;1.70;;;21.50;62.70;;;;;;5005850;28;20414;-58
2022/05/19 02:10:59;;;;;;;4.47;1.50;;;21.50;62.70;;;;;;5022229;28;20407;-58
2022/05/19 02:13:25;;;;;;;6.18;1.77;;;21.50;62.80;;;;;;5021679;28;20146;-58
2022/05/19 02:15:52;;;;;;;4.57;1.60;;;21.50;62.70;;;;;;5021754;28;20041;-58
2022/05/19 02:18:18;;;;;;;4.53;1.60;;;21.50;62.80;;;;;;5022825;28;20499;-58
2022/05/19 02:20:44;;;;;;;6.00;1.73;;;21.50;62.70;;;;;;5001778;28;20021;-58
2022/05/19 02:23:11;;;;;;;5.68;1.70;;;21.50;62.80;;;;;;5004030;28;20070;-58
2022/05/19 02:25:40;;;;;;;5.15;1.63;;;21.50;62.80;;;;;;4988439;28;20029;-58
2022/05/19 02:28:31;;;;;;;5.43;1.67;;;21.50;63.80;;;;;;5019173;28;20096;-58
2022/05/19 02:30:57;;;;;;;6.60;1.67;;;21.40;62.70;;;;;;4998752;28;20560;-58
2022/05/19 02:33:23;;;;;;;4.18;1.60;;;21.40;62.70;;;;;;5003793;28;20041;-58
2022/05/19 02:35:49;;;;;;;5.78;1.70;;;21.40;62.70;;;;;;5032675;28;20044;-58
2022/05/19 02:38:15;;;;;;;5.00;1.65;;;21.40;62.70;;;;;;5034307;28;20033;-58
2022/05/19 02:40:42;;;;;;;7.50;1.70;;;21.40;62.70;;;;;;5036208;28;20017;-57
2022/05/19 02:43:08;;;;;;;4.47;1.60;;;21.40;62.70;;;;;;5043855;28;20037;-58
2022/05/19 02:45:34;;;;;;;5.18;1.38;;;21.40;62.70;;;;;;5032351;28;20132;-58
2022/05/19 02:48:00;;;;;;;4.50;1.38;;;21.40;62.70;;;;;;5036066;28;20566;-58
2022/05/19 02:50:26;;;;;;;4.05;1.55;;;21.40;62.70;;;;;;5035486;28;20086;-58
2022/05/19 02:52:52;;;;;;;6.70;1.67;;;21.40;62.70;;;;;;5037665;28;20056;-58
2022/05/19 02:55:18;;;;;;;5.53;1.67;;;21.40;62.70;;;;;;5045902;28;20021;-58
2022/05/19 02:57:44;;;;;;;4.95;1.50;;;21.40;62.70;;;;;;5037235;28;20083;-60
2022/05/19 03:00:17;;;;;;;4.93;1.70;;;21.40;62.70;;;;;;5034408;28;20052;-60
2022/05/19 03:02:43;;;;;;;5.85;1.65;;;21.40;62.70;;;;;;5040035;28;20036;-59
2022/05/19 03:05:10;;;;;;;4.85;1.60;;;21.30;62.60;;;;;;5041868;28;20029;-60
2022/05/19 03:07:35;;;;;;;5.30;1.60;;;21.30;62.60;;;;;;5035528;28;20025;-60
2022/05/19 03:10:02;;;;;;;3.72;1.30;;;21.30;62.60;;;;;;5037288;28;20033;-60
2022/05/19 03:12:28;;;;;;;5.47;1.52;;;21.30;62.50;;;;;;5033359;28;20086;-60
2022/05/19 03:14:54;;;;;;;4.50;1.40;;;21.30;62.50;;;;;;5045229;28;20033;-60
2022/05/19 03:17:20;;;;;;;6.07;1.60;;;21.30;62.50;;;;;;5036436;28;20526;-59
2022/05/19 03:19:46;;;;;;;4.88;1.52;;;21.30;62.60;;;;;;5047156;28;20017;-59
2022/05/19 03:22:11;;;;;;;5.40;1.63;;;21.30;62.60;;;;;;5033277;28;20524;-60
2022/05/19 03:24:37;;;;;;;5.60;1.75;;;21.30;62.60;;;;;;5036053;28;20055;-60
2022/05/19 03:27:03;;;;;;;4.50;1.42;;;21.30;62.50;;;;;;5036527;28;20040;-60
2022/05/19 03:29:29;;;;;;;5.35;1.70;;;21.30;62.50;;;;;;5034592;28;20021;-60
2022/05/19 03:31:54;;;;;;;5.90;1.45;;;21.30;62.50;;;;;;5036359;28;20025;-60
2022/05/19 03:34:20;;;;;;;6.80;1.92;;;21.20;62.40;;;;;;5031855;28;20036;-60
2022/05/19 03:36:46;;;;;;;4.70;1.52;;;21.20;62.50;;;;;;5038929;28;20021;-60
2022/05/19 03:39:12;;;;;;;5.38;1.70;;;21.20;62.40;;;;;;5038375;28;20497;-60
2022/05/19 03:41:38;;;;;;;4.93;1.60;;;21.20;62.30;;;;;;5042792;28;20016;-60
2022/05/19 03:44:03;;;;;;;5.63;1.60;;;21.20;62.10;;;;;;5035679;28;20029;-60
2022/05/19 03:46:29;;;;;;;6.00;1.60;;;21.30;62.50;;;;;;5030118;28;20116;-60
2022/05/19 03:48:55;;;;;;;6.22;1.55;;;21.20;62.50;;;;;;5035385;28;20555;-60
2022/05/19 03:51:26;;;;;;;7.43;1.60;;;21.20;62.60;;;;;;5029746;28;20025;-59
2022/05/19 03:53:52;;;;;;;4.32;1.40;;;21.20;62.50;;;;;;5038525;28;20040;-59
2022/05/19 03:56:18;;;;;;;5.50;1.48;;;21.20;62.60;;;;;;5034313;28;20026;-60
2022/05/19 03:58:44;;;;;;;5.22;1.65;;;21.20;62.50;;;;;;5036830;28;20021;-59
2022/05/19 04:01:09;;;;;;;4.32;1.40;;;21.20;62.40;;;;;;5031607;28;20044;-60
2022/05/19 04:03:35;;;;;;;5.07;1.50;;;21.20;63.50;;;;;;5035009;28;20037;-60
2022/05/19 04:06:01;;;;;;;5.97;1.60;;;21.20;62.30;;;;;;5039042;28;20013;-59
2022/05/19 04:08:26;;;;;;;4.55;1.30;;;21.20;62.40;;;;;;5032396;28;20051;-60
2022/05/19 04:10:52;;;;;;;5.95;1.83;;;21.10;62.30;;;;;;5033547;28;20150;-60
2022/05/19 04:13:18;;;;;;;5.85;1.67;;;21.10;62.30;;;;;;5034623;28;20079;-60
2022/05/19 04:15:44;;;;;;;4.93;1.38;;;21.10;62.40;;;;;;5030085;28;20083;-60
2022/05/19 04:18:09;;;;;;;10.38;1.75;;;21.10;62.40;;;;;;5034950;28;20086;-60
2022/05/19 04:20:35;;;;;;;6.13;1.52;;;21.10;62.30;;;;;;5040372;28;20091;-60
2022/05/19 04:23:01;;;;;;;5.70;1.48;;;21.10;62.60;;;;;;5033086;28;20518;-59
2022/05/19 04:25:28;;;;;;;5.05;1.73;;;21.10;62.40;;;;;;5042375;28;20144;-60
2022/05/19 04:27:53;;;;;;;9.13;1.50;;;21.10;62.40;;;;;;5041055;28;20037;-60
2022/05/19 04:30:19;;;;;;;6.30;1.55;;;21.10;62.40;;;;;;5030967;28;20090;-60
2022/05/19 04:32:45;;;;;;;5.70;1.55;;;21.10;62.30;;;;;;5032971;28;20078;-59
2022/05/19 04:35:11;;;;;;;4.82;1.50;;;21.10;62.50;;;;;;5033786;28;20032;-60
2022/05/19 04:37:37;;;;;;;5.97;1.70;;;21.10;62.50;;;;;;5047226;28;20056;-60
2022/05/19 04:40:03;;;;;;;5.70;1.45;;;21.10;62.60;;;;;;5040274;28;20475;-61
2022/05/19 04:42:29;;;;;;;4.93;1.55;;;21.10;62.60;;;;;;5029054;28;20077;-60
2022/05/19 04:44:55;;;;;;;5.00;1.55;;;21.00;62.50;;;;;;5032958;28;20041;-60
2022/05/19 04:47:21;;;;;;;5.05;1.55;;;21.00;62.60;;;;;;5040717;28;20041;-59
2022/05/19 04:49:46;;;;;;;4.97;1.50;;;21.00;62.50;;;;;;5037756;28;20057;-60
2022/05/19 04:52:12;;;;;;;5.63;1.73;;;21.00;62.60;;;;;;5037603;28;20536;-60
2022/05/19 04:54:38;;;;;;;5.45;1.63;;;21.00;62.40;;;;;;5029978;28;20501;-60
2022/05/19 04:57:04;;;;;;;3.60;1.25;;;21.10;62.60;;;;;;5033304;28;20026;-60
2022/05/19 04:59:31;;;;;;;4.30;1.40;;;21.00;62.60;;;;;;5034520;28;20112;-60
2022/05/19 05:01:57;;;;;;;5.15;1.50;;;21.00;62.60;;;;;;5027727;28;20526;-60
2022/05/19 05:04:23;;;;;;;5.00;1.48;;;21.00;62.60;;;;;;5034156;28;20422;-60
2022/05/19 05:06:49;;;;;;;4.03;1.40;;;21.00;62.60;;;;;;5031977;28;20052;-60
2022/05/19 05:09:16;;;;;;;6.38;1.70;;;21.00;62.60;;;;;;5034354;28;20025;-60
2022/05/19 05:11:42;;;;;;;5.97;1.70;;;21.00;62.70;;;;;;5036703;28;20517;-61
2022/05/19 05:14:08;;;;;;;8.38;2.17;;;21.00;62.10;;;;;;5036171;28;20037;-59
2022/05/19 05:16:34;;;;;;;10.02;2.65;;;21.00;60.90;;;;;;5040589;28;20021;-60
2022/05/19 05:18:59;;;;;;;15.25;3.22;;;20.90;61.10;;;;;;5035886;28;20037;-60
2022/05/19 05:21:25;;;;;;;15.90;2.90;;;20.90;61.40;;;;;;5037683;28;20609;-60
2022/05/19 05:23:51;;;;;;;15.88;3.03;;;20.90;60.80;;;;;;5032549;28;20395;-60
2022/05/19 05:26:16;;;;;;;11.32;2.35;;;20.90;61.10;;;;;;5031326;28;20407;-60
2022/05/19 05:28:42;;;;;;;10.57;2.40;;;20.90;62.60;;;;;;5039299;28;20500;-60
2022/05/19 05:31:08;;;;;;;12.85;3.08;;;20.90;62.70;;;;;;5031051;28;20086;-61
2022/05/19 05:33:34;;;;;;;11.45;2.45;;;20.90;62.70;;;;;;5029548;28;20038;-60
2022/05/19 05:35:59;;;;;;;12.45;2.85;;;20.90;63.00;;;;;;5038014;28;20527;-59
2022/05/19 05:38:25;;;;;;;9.32;2.10;;;21.00;63.40;;;;;;5033507;28;20018;-60
2022/05/19 05:40:50;;;;;;;10.52;2.33;;;21.00;63.30;;;;;;5030708;28;20406;-61
2022/05/19 05:43:18;;;;;;;8.02;2.05;;;21.00;63.20;;;;;;5033960;28;20025;-61
2022/05/19 05:45:44;;;;;;;13.10;2.83;;;21.00;63.00;;;;;;5035276;28;20029;-60
2022/05/19 05:48:10;;;;;;;11.98;2.50;;;21.00;63.10;;;;;;5028617;28;20044;-60
2022/05/19 05:50:36;;;;;;;12.70;2.28;;;21.00;63.30;;;;;;5031193;28;20125;-60
2022/05/19 05:53:02;;;;;;;8.30;2.40;;;21.00;63.30;;;;;;5035627;28;20029;-60
2022/05/19 05:55:28;;;;;;;11.98;2.47;;;21.00;63.20;;;;;;5034255;28;20115;-60
2022/05/19 05:57:53;;;;;;;12.13;2.40;;;20.90;63.20;;;;;;5029821;28;20108;-60
2022/05/19 06:00:19;;;;;;;11.32;2.42;;;20.90;63.20;;;;;;5036661;28;20466;-60
2022/05/19 06:02:45;;;;;;;10.02;2.30;;;20.90;63.10;;;;;;5030352;28;20233;-60
2022/05/19 06:05:11;;;;;;;13.52;2.42;;;20.90;63.10;;;;;;5037285;28;20107;-60
2022/05/19 06:07:37;;;;;;;10.35;2.38;;;20.90;63.00;;;;;;5034557;28;20033;-60
2022/05/19 06:10:03;;;;;;;10.73;2.72;;;20.90;63.00;;;;;;5039425;28;20017;-60
2022/05/19 06:12:29;;;;;;;8.65;2.22;;;20.90;62.90;;;;;;5071226;28;20037;-60
2022/05/19 06:14:56;;;;;;;8.20;2.05;;;20.90;62.90;;;;;;5037611;28;20022;-61
2022/05/19 06:17:22;;;;;;;10.50;2.75;;;20.90;62.80;;;;;;5035155;28;20453;-60
2022/05/19 06:19:49;;;;;;;11.02;2.50;;;20.90;62.90;;;;;;5038458;28;20028;-60
2022/05/19 06:22:14;;;;;;;8.48;2.20;;;20.90;62.80;;;;;;5036646;28;20033;-60
2022/05/19 06:24:40;;;;;;;9.63;2.20;;;20.90;62.80;;;;;;5033947;28;20155;-59
2022/05/19 06:27:06;;;;;;;11.25;2.63;;;20.90;62.80;;;;;;5036280;28;20437;-60
2022/05/19 06:29:31;;;;;;;9.40;2.30;;;21.00;62.70;;;;;;5033386;28;20075;-60
2022/05/19 06:31:57;;;;;;;8.70;2.20;;;20.90;62.70;;;;;;5039290;28;20036;-60
2022/05/19 06:34:23;;;;;;;8.32;2.10;;;20.90;62.80;;;;;;5040221;28;20116;-60
2022/05/19 06:36:48;;;;;;;9.55;2.15;;;20.90;62.60;;;;;;5035363;28;20048;-60
2022/05/19 06:39:16;;;;;;;9.80;2.10;;;20.90;62.70;;;;;;5037456;28;20055;-61
2022/05/19 06:42:03;;;;;;;9.95;2.25;;;20.90;62.60;;;;;;5036600;28;20151;-61
2022/05/19 06:44:32;;;;;;;7.25;2.20;;;20.90;62.60;;;;;;5032805;28;20048;-60
2022/05/19 06:46:57;;;;;;;7.93;2.15;;;21.00;62.70;;;;;;5039449;28;20041;-61
2022/05/19 06:49:23;;;;;;;8.40;1.98;;;21.00;62.60;;;;;;5034707;28;20501;-60
2022/05/19 06:51:49;;;;;;;10.60;2.22;;;21.00;62.60;;;;;;5036666;28;20033;-60
2022/05/19 06:54:14;;;;;;;9.07;2.10;;;21.00;62.60;;;;;;5035209;28;20060;-60
2022/05/19 06:56:40;;;;;;;10.52;2.20;;;21.00;62.60;;;;;;5035023;28;20021;-60
2022/05/19 06:59:07;;;;;;;11.30;2.55;;;20.90;62.50;;;;;;5036405;28;20040;-61
2022/05/19 07:01:32;;;;;;;9.35;2.13;;;20.90;62.60;;;;;;5039946;28;20049;-60
2022/05/19 07:03:58;;;;;;;10.02;1.88;;;20.90;62.60;;;;;;5037759;28;20374;-60
2022/05/19 07:06:24;;;;;;;9.88;2.10;;;20.90;62.60;;;;;;5033134;28;20379;-60
2022/05/19 07:08:50;;;;;;;9.98;2.40;;;21.00;62.60;;;;;;5033897;28;20449;-60
2022/05/19 07:11:24;;;;;;;7.78;2.35;;;20.90;62.50;;;;;;5038996;28;20017;-60
2022/05/19 07:13:52;;;;;;;11.65;2.75;;;21.00;62.60;;;;;;5034801;28;20051;-60
2022/05/19 07:16:18;;;;;;;9.23;2.30;;;21.00;62.70;;;;;;5032947;28;20041;-60
2022/05/19 07:18:43;;;;;;;9.75;2.45;;;21.00;62.70;;;;;;5037106;28;20441;-60
2022/05/19 07:21:09;;;;;;;11.32;2.38;;;21.00;62.70;;;;;;5029993;28;20029;-60
2022/05/19 07:23:36;;;;;;;8.93;1.80;;;21.00;62.70;;;;;;5036523;28;20046;-60
2022/05/19 07:26:01;;;;;;;6.70;1.92;;;20.90;62.60;;;;;;5035674;28;20029;-59
2022/05/19 07:28:27;;;;;;;8.25;2.10;;;21.00;62.80;;;;;;5033531;28;20021;-60
2022/05/19 07:30:52;;;;;;;6.90;2.13;;;21.00;62.70;;;;;;5038924;28;20031;-59
2022/05/19 07:33:18;;;;;;;9.35;2.22;;;21.00;62.70;;;;;;5031432;28;20022;-60
2022/05/19 07:35:46;;;;;;;10.25;2.38;;;21.00;62.70;;;;;;5038923;28;20026;-60
2022/05/19 07:38:14;;;;;;;7.50;2.10;;;21.00;62.80;;;;;;5040959;28;20091;-60
2022/05/19 07:40:41;;;;;;;8.50;2.05;;;21.00;62.70;;;;;;5033237;28;20035;-59
2022/05/19 07:45:51;;;;;;;8.88;2.05;;;21.00;62.90;;;;;;5031376;28;20454;-60
2022/05/19 07:48:17;;;;;;;5.45;1.88;;;21.00;62.80;;;;;;5033569;28;20108;-60
2022/05/19 07:50:42;;;;;;;7.85;2.20;;;21.00;62.80;;;;;;5034802;28;20140;-60
2022/05/19 07:53:08;;;;;;;8.38;2.20;;;21.00;62.80;;;;;;5039982;28;20045;-60
2022/05/19 07:55:34;;;;;;;8.45;1.98;;;21.00;62.80;;;;;;5032172;28;20060;-60
2022/05/19 07:58:00;;;;;;;7.53;1.88;;;21.00;62.90;;;;;;5030990;28;20112;-59
2022/05/19 08:00:26;;;;;;;8.07;2.08;;;21.00;62.80;;;;;;5035671;28;20032;-60
2022/05/19 08:02:51;;;;;;;9.88;2.20;;;21.00;62.70;;;;;;5034443;28;20037;-60
2022/05/19 08:05:17;;;;;;;6.25;1.98;;;21.00;62.70;;;;;;5036888;28;20028;-60
2022/05/19 08:07:42;;;;;;;6.15;1.70;;;21.10;62.80;;;;;;5035677;28;20032;-60
2022/05/19 08:10:20;;;;;;;7.80;1.90;;;21.10;62.90;;;;;;5036055;28;20025;-60
2022/05/19 08:15:36;;;;;;;8.27;2.23;;;21.10;63.00;;;;;;5030812;28;20086;-60
2022/05/19 08:18:06;;;;;;;9.07;1.80;;;21.10;63.00;;;;;;5035510;28;20279;-61
2022/05/19 08:20:32;;;;;;;8.23;2.00;;;21.10;63.00;;;;;;5032059;28;20029;-60
2022/05/19 08:22:58;;;;;;;6.22;1.92;;;21.10;63.00;;;;;;5033032;28;20033;-60
2022/05/19 08:25:27;;;;;;;6.78;1.92;;;21.10;62.90;;;;;;5030383;28;20403;-60
2022/05/19 08:27:53;;;;;;;5.63;1.88;;;21.20;63.00;;;;;;5030099;28;20052;-60
2022/05/19 08:30:19;;;;;;;9.20;2.10;;;21.20;63.00;;;;;;5032729;28;20029;-60
2022/05/19 08:32:45;;;;;;;6.30;1.80;;;21.10;63.00;;;;;;5031031;28;20028;-59
2022/05/19 08:35:10;;;;;;;7.50;1.90;;;21.10;63.00;;;;;;5033299;28;20410;-60
2022/05/19 08:37:36;;;;;;;7.95;1.88;;;21.20;62.90;;;;;;5030930;28;20506;-60
2022/05/19 08:40:02;;;;;;;6.30;1.65;;;21.20;62.90;;;;;;5031949;28;20086;-60
2022/05/19 08:42:29;;;;;;;5.55;1.88;;;21.20;63.00;;;;;;5031231;28;20048;-60
2022/05/19 08:44:55;;;;;;;5.82;1.65;;;21.20;64.00;;;;;;5035007;28;20033;-60
2022/05/19 08:47:25;;;;;;;7.88;2.00;;;21.20;62.90;;;;;;5063945;28;20049;-59
2022/05/19 08:50:01;;;;;;;6.38;2.00;;;21.30;62.90;;;;;;5039062;28;20025;-60
2022/05/19 08:52:34;;;;;;;6.97;2.00;;;21.20;62.90;;;;;;5038390;28;20522;-60
2022/05/19 08:55:00;;;;;;;6.00;1.65;;;21.30;62.90;;;;;;5040268;28;20517;-60
2022/05/19 08:57:36;;;;;;;6.93;2.00;;;21.30;62.80;;;;;;5031588;28;20151;-60
2022/05/19 09:00:15;;;;;;;6.88;1.77;;;21.30;62.80;;;;;;5035590;28;20029;-60
2022/05/19 09:02:50;;;;;;;6.18;1.80;;;21.30;62.90;;;;;;5031925;28;20071;-59
2022/05/19 09:05:25;;;;;;;5.32;1.75;;;21.30;62.90;;;;;;5069108;28;20021;-60
2022/05/19 09:07:56;;;;;;;7.03;1.80;;;21.30;62.90;;;;;;5036961;28;20474;-60
2022/05/19 09:10:41;;;;;;;8.10;2.10;;;21.30;62.90;;;;;;5065149;28;20402;-60
2022/05/19 09:13:24;;;;;;;5.22;1.60;;;21.30;62.90;;;;;;5033564;28;20036;-60
2022/05/19 09:15:50;;;;;;;5.00;1.70;;;21.30;62.90;;;;;;5029399;28;20040;-60
2022/05/19 09:18:16;;;;;;;6.97;1.75;;;21.30;62.90;;;;;;5039642;28;20237;-60
2022/05/19 09:20:48;;;;;;;7.53;1.77;;;21.30;62.80;;;;;;5038352;28;20049;-60
2022/05/19 09:23:14;;;;;;;5.70;1.80;;;21.30;62.80;;;;;;5069607;28;20118;-60
2022/05/19 09:26:07;;;;;;;6.60;1.70;;;21.30;62.80;;;;;;5035587;28;20025;-60
2022/05/19 09:28:34;;;;;;;5.80;1.73;;;21.40;62.70;;;;;;5047203;28;20017;-60
2022/05/19 09:30:59;;;;;;;5.60;1.80;;;21.40;62.70;;;;;;5037050;28;20516;-60
2022/05/19 09:33:35;;;;;;;6.55;1.90;;;21.40;62.70;;;;;;5033530;28;20104;-60
2022/05/19 09:36:01;;;;;;;5.68;1.63;;;21.40;62.80;;;;;;5033190;28;20061;-60
2022/05/19 09:38:34;;;;;;;4.47;1.45;;;21.40;62.70;;;;;;5051940;28;20060;-60
2022/05/19 09:41:06;;;;;;;5.43;1.65;;;21.40;62.70;;;;;;5039346;28;20116;-60
2022/05/19 09:43:36;;;;;;;7.20;2.00;;;21.40;62.70;;;;;;5042505;28;20026;-59
2022/05/19 09:46:14;;;;;;;5.00;1.70;;;21.50;62.70;;;;;;5040780;28;20037;-59
2022/05/19 09:49:01;;;;;;;6.63;1.80;;;21.50;62.70;;;;;;5033152;28;20034;-59
2022/05/19 09:51:42;;;;;;;7.00;1.63;;;21.50;62.80;;;;;;5033428;28;20540;-60
2022/05/19 09:54:12;;;;;;;5.60;1.70;;;21.50;62.80;;;;;;5041858;28;20572;-59
2022/05/19 09:56:44;;;;;;;7.63;1.90;;;21.50;62.80;;;;;;5041895;28;20115;-60
2022/05/19 09:59:19;;;;;;;6.38;1.80;;;21.50;62.60;;;;;;5063685;28;20025;-60
2022/05/19 10:01:46;;;;;;;7.20;1.90;;;21.50;62.80;;;;;;5034965;28;20112;-59
2022/05/19 10:04:42;;;;;;;5.40;1.90;;;21.50;62.70;;;;;;5039442;28;20087;-60
2022/05/19 10:07:23;;;;;;;5.90;1.75;;;21.50;62.50;;;;;;5033747;28;20040;-60
2022/05/19 10:09:49;;;;;;;7.15;1.92;;;21.60;62.60;;;;;;5040917;28;20033;-60
2022/05/19 10:12:22;;;;;;;4.00;1.40;;;21.60;62.60;;;;;;5037499;28;20300;-60
2022/05/19 10:14:50;;;;;;;5.53;1.80;;;21.60;62.40;;;;;;5041158;28;20026;-60
2022/05/19 10:17:33;;;;;;;7.15;1.80;;;21.60;62.50;;;;;;5039780;28;20033;-60
2022/05/19 10:20:19;;;;;;;4.63;1.50;;;21.70;62.30;;;;;;5039493;28;20029;-59
2022/05/19 10:22:47;;;;;;;4.47;1.58;;;21.70;62.30;;;;;;5064125;28;20475;-60
2022/05/19 10:25:41;;;;;;;7.03;1.80;;;21.70;62.30;;;;;;5036674;28;20055;-60
2022/05/19 10:31:40;;;;;;;5.05;1.50;;;21.70;62.30;;;;;;5041893;28;20032;-60
2022/05/19 10:34:10;;;;;;;5.95;1.70;;;21.70;62.30;;;;;;5034803;28;20120;-60
2022/05/19 10:37:00;;;;;;;4.43;1.65;;;21.80;62.40;;;;;;5040086;28;20456;-60
2022/05/19 10:39:32;;;;;;;7.40;1.95;;;21.80;62.30;;;;;;5038378;28;20486;-59
2022/05/19 10:41:57;;;;;;;5.13;1.60;;;21.80;62.40;;;;;;5034545;28;20067;-61
2022/05/19 10:44:41;;;;;;;4.97;1.52;;;21.80;62.30;;;;;;5035098;28;20033;-59
2022/05/19 10:47:14;;;;;;;5.47;1.50;;;21.80;62.30;;;;;;5033158;28;20050;-60
2022/05/19 10:49:57;;;;;;;4.18;1.40;;;21.80;62.30;;;;;;5037242;28;20525;-61
2022/05/19 10:52:43;;;;;;;5.63;1.60;;;21.80;62.30;;;;;;5039222;28;20619;-60
2022/05/19 10:55:31;;;;;;;5.97;1.70;;;21.80;63.00;;;;;;5045984;28;20083;-60
2022/05/19 10:58:02;;;;;;;4.97;1.58;;;21.80;62.30;;;;;;5039772;28;20553;-60
2022/05/19 11:00:55;;;;;;;5.32;1.58;;;21.80;62.40;;;;;;5042291;28;20044;-60
2022/05/19 11:03:27;;;;;;;6.63;1.70;;;21.80;62.10;;;;;;5038356;28;20067;-60
2022/05/19 11:06:30;;;;;;;4.15;1.45;;;21.80;62.20;;;;;;5037731;28;20470;-60
2022/05/19 11:09:06;;;;;;;4.82;1.63;;;21.80;62.00;;;;;;5033068;28;20022;-59
2022/05/19 11:11:54;;;;;;;5.32;1.48;;;21.90;62.10;;;;;;5041822;28;20029;-60
2022/05/19 11:14:52;;;;;;;5.60;1.65;;;21.90;62.20;;;;;;5033439;28;20063;-60
2022/05/19 11:17:38;;;;;;;4.32;1.42;;;21.90;62.30;;;;;;5032820;28;20026;-60
2022/05/19 11:20:18;;;;;;;6.90;1.80;;;21.90;62.10;;;;;;5037338;28;20022;-59
2022/05/19 11:22:44;;;;;;;5.60;1.50;;;21.90;62.20;;;;;;5041980;28;20127;-59
2022/05/19 11:28:44;;;;;;;5.47;1.70;;;21.90;62.00;;;;;;5041037;28;20166;-59
2022/05/19 11:31:26;;;;;;;6.85;1.80;;;21.90;62.30;;;;;;5024636;28;20052;-59
2022/05/19 11:33:52;;;;;;;5.25;1.60;;;21.90;62.10;;;;;;5004871;28;20406;-59
2022/05/19 11:36:20;;;;;;;5.47;1.50;;;21.90;61.90;;;;;;5026941;28;20033;-60
2022/05/19 11:38:50;;;;;;;5.40;1.58;;;22.00;61.90;;;;;;5026665;28;20505;-59
2022/05/19 11:41:25;;;;;;;5.45;1.52;;;22.00;61.90;;;;;;5020764;28;20029;-59
2022/05/19 11:43:54;;;;;;;5.07;1.67;;;22.00;62.00;;;;;;5024516;28;20402;-60
2022/05/19 11:46:39;;;;;;;4.60;1.33;;;22.00;61.90;;;;;;5021464;28;20280;-60
2022/05/19 11:55:25;;;;;;;4.13;1.42;;;22.10;62.00;;;;;;5028901;28;20128;-59
2022/05/19 11:58:20;;;;;;;5.15;1.60;;;22.10;61.80;;;;;;5010566;28;20071;-59
2022/05/19 12:01:00;;;;;;;4.20;1.40;;;22.10;61.70;;;;;;5029535;28;20044;-59
2022/05/19 12:03:42;;;;;;;6.85;1.60;;;22.10;61.80;;;;;;5017203;28;20041;-60
2022/05/19 12:06:13;;;;;;;3.92;1.35;;;22.20;61.80;;;;;;5033830;28;20026;-60
2022/05/19 12:09:06;;;;;;;4.20;1.35;;;22.20;61.80;;;;;;5034402;28;20037;-59
2022/05/19 12:11:44;;;;;;;5.28;1.50;;;22.20;61.80;;;;;;5034512;28;20048;-59
2022/05/19 12:14:25;;;;;;;4.63;1.65;;;22.20;61.70;;;;;;5034276;28;20037;-60
2022/05/19 12:16:59;;;;;;;5.10;1.40;;;22.20;61.60;;;;;;5033815;28;20025;-59
2022/05/19 12:19:35;;;;;;;6.45;1.58;;;22.20;61.60;;;;;;5038190;28;20021;-59
2022/05/19 12:22:05;;;;;;;4.95;1.38;;;22.20;61.60;;;;;;5033245;28;20124;-59
2022/05/19 12:24:50;;;;;;;4.28;1.40;;;22.30;61.60;;;;;;5041153;28;20049;-60
2022/05/19 12:27:18;;;;;;;5.85;1.58;;;22.30;61.60;;;;;;5058149;28;20021;-60
2022/05/19 12:33:25;;;;;;;4.70;1.63;;;22.30;61.50;;;;;;5034900;28;20040;-60
2022/05/19 12:35:59;;;;;;;3.00;1.35;;;22.30;61.30;;;;;;5043787;28;20028;-60
2022/05/19 12:38:34;;;;;;;5.07;1.40;;;22.40;61.30;;;;;;5033902;28;20052;-60
2022/05/19 12:41:03;;;;;;;5.55;1.52;;;22.40;61.30;;;;;;5048373;28;20041;-60
2022/05/19 12:43:29;;;;;;;3.58;1.20;;;22.40;61.20;;;;;;5038399;28;20067;-59
2022/05/19 12:45:59;;;;;;;4.65;1.40;;;22.50;61.20;;;;;;5027413;28;20045;-60
2022/05/19 12:48:31;;;;;;;3.63;1.30;;;22.50;61.20;;;;;;5041030;28;20025;-60
2022/05/19 12:51:06;;;;;;;4.47;1.30;;;22.50;61.20;;;;;;5035946;28;20037;-60
2022/05/19 12:53:51;;;;;;;5.75;1.60;;;22.50;61.20;;;;;;5033370;28;20685;-60
2022/05/19 12:56:40;;;;;;;5.25;1.52;;;22.50;61.10;;;;;;5067069;28;20025;-60
2022/05/19 12:59:09;;;;;;;3.20;1.20;;;22.60;61.30;;;;;;5038020;28;20037;-60
2022/05/19 13:01:37;;;;;;;3.80;1.25;;;22.60;61.30;;;;;;5030418;28;20021;-60
2022/05/19 13:04:13;;;;;;;3.20;1.20;;;22.60;61.30;;;;;;5064175;28;20561;-60
2022/05/19 13:07:00;;;;;;;3.75;1.40;;;22.60;61.30;;;;;;5022272;28;20025;-60
2022/05/19 13:09:27;;;;;;;3.38;1.30;;;22.60;61.10;;;;;;5036693;28;20060;-60
2022/05/19 13:11:54;;;;;;;5.00;1.33;;;22.70;61.10;;;;;;5032890;28;20061;-60
2022/05/19 13:14:23;;;;;;;5.65;1.40;;;22.70;61.30;;;;;;5040712;28;20037;-60
2022/05/19 13:16:52;;;;;;;3.92;1.20;;;22.70;61.10;;;;;;5070235;28;20052;-60
2022/05/19 13:19:23;;;;;;;4.72;1.30;;;22.70;61.20;;;;;;5042299;28;20040;-60
2022/05/19 13:21:57;;;;;;;4.95;1.40;;;22.80;61.10;;;;;;5043984;28;20561;-60
2022/05/19 13:24:24;;;;;;;4.47;1.58;;;22.80;61.10;;;;;;5038579;28;20049;-60